Online Now
Guests 1
Members   0

24/7 FSX Server
IP: 71.135.74.145
@ PANC until 10/22/21



Information and tools for flight simulation use only - NOT for real avaition

File Flight Plans Here

PANC 192353Z 02006KT 10SM -RA FEW008 BKN048 OVC070 06/M02 A2907 RMK AO2 SLP845 P0000 60000 T00561017 10056 20022 58025 PANC 192343Z 2000/2106 36010KT P6SM -RA SCT040 BKN045 OVC060 FM200430 16012G20KT 6SM -RA SCT030 BKN050 FM200900 16008KT P6SM VCSH SCT030 BKN050 FM201500 01005KT P6SM SCT030 BKN060 FM210300 35006KT P6SM -RA BKN030 OVC050
Aviation Digital Data Service (ADDS)



Other FSX servers